Time;durP1;ratioP1;P1;durP2;ratioP2;P2;SDS_P1;SDS_P2;PMS_P1;PMS_P2;Temp;Humidity;BMP_temperature;BMP_pressure;BME280_temperature;BME280_humidity;BME280_pressure;Samples;Min_cycle;Max_cycle;Signal;HPM_P1;HPM_P2
2021/06/28 00:00:04;;;;;;;8.18;5.72;;;;;;;16.21;89.48;98308.47;5045677;28;20066;-64
2021/06/28 00:02:32;;;;;;;6.22;5.30;;;;;;;16.18;89.27;98308.63;5045665;28;20037;-64
2021/06/28 00:04:58;;;;;;;9.13;6.10;;;;;;;16.24;89.72;98313.66;5045454;28;20029;-64
2021/06/28 00:07:23;;;;;;;7.47;5.63;;;;;;;16.28;89.72;98312.56;5045559;28;20321;-64
2021/06/28 00:09:49;;;;;;;8.23;6.35;;;;;;;16.26;89.66;98316.25;5045470;28;20026;-64
2021/06/28 00:12:14;;;;;;;12.27;7.18;;;;;;;16.27;90.18;98318.81;5045430;28;20029;-64
2021/06/28 00:14:40;;;;;;;10.88;6.40;;;;;;;16.30;89.78;98323.97;5045247;28;20049;-64
2021/06/28 00:17:06;;;;;;;12.63;5.88;;;;;;;16.31;89.07;98320.41;5045312;28;20080;-64
2021/06/28 00:19:31;;;;;;;23.70;6.63;;;;;;;16.24;88.91;98312.78;5045285;28;20025;-64
2021/06/28 00:21:56;;;;;;;15.57;6.22;;;;;;;16.27;89.14;98324.13;5045468;28;20072;-64
2021/06/28 00:24:22;;;;;;;12.43;6.40;;;;;;;16.34;89.46;98325.56;5045193;28;20027;-64
2021/06/28 00:26:47;;;;;;;7.88;6.20;;;;;;;16.39;89.96;98323.53;5045041;28;20088;-64
2021/06/28 00:29:23;;;;;;;6.60;5.80;;;;;;;16.37;89.99;98320.09;5045117;28;20302;-64
2021/06/28 00:31:58;;;;;;;10.23;5.63;;;;;;;16.47;89.88;98325.84;5044926;28;20324;-64
2021/06/28 00:34:24;;;;;;;9.23;6.15;;;;;;;16.47;89.59;98321.41;5044894;28;20036;-64
2021/06/28 00:36:49;;;;;;;11.00;6.18;;;;;;;16.44;89.94;98316.25;5044943;28;20213;-64
2021/06/28 00:39:15;;;;;;;7.30;5.85;;;;;;;16.41;89.47;98311.03;5044920;28;20028;-64
2021/06/28 00:41:41;;;;;;;7.80;5.93;;;;;;;16.46;89.50;98318.84;5044855;28;20085;-64
2021/06/28 00:44:06;;;;;;;8.60;5.53;;;;;;;16.46;89.93;98313.53;5044588;28;20029;-64
2021/06/28 00:46:32;;;;;;;9.00;5.85;;;;;;;16.43;89.90;98317.19;5044698;28;20217;-64
2021/06/28 00:48:58;;;;;;;6.88;5.95;;;;;;;16.49;89.70;98319.53;5044712;28;20029;-64
2021/06/28 00:51:24;;;;;;;6.25;5.47;;;;;;;16.47;89.44;98320.53;5044656;28;20063;-64
2021/06/28 00:53:51;;;;;;;7.40;5.45;;;;;;;16.48;89.51;98317.81;5044578;28;20029;-64
2021/06/28 00:56:17;;;;;;;7.80;5.55;;;;;;;16.52;89.82;98323.84;5044658;28;20320;-64
2021/06/28 00:58:44;;;;;;;9.30;5.95;;;;;;;16.47;89.90;98310.78;5044478;28;20032;-64
2021/06/28 01:01:12;;;;;;;20.65;7.38;;;;;;;16.52;90.22;98319.38;5044636;28;20025;-64
2021/06/28 01:03:38;;;;;;;8.93;6.00;;;;;;;16.38;89.59;98318.28;5044642;28;20032;-64
2021/06/28 01:06:05;;;;;;;10.88;5.90;;;;;;;16.31;89.60;98309.78;5044384;28;20371;-64
2021/06/28 01:08:31;;;;;;;7.90;6.28;;;;;;;16.43;90.17;98316.31;5044398;28;20022;-64
2021/06/28 01:10:57;;;;;;;10.18;6.28;;;;;;;16.52;90.18;98313.22;5044348;28;20067;-64
2021/06/28 01:13:22;;;;;;;10.63;6.43;;;;;;;16.54;90.43;98317.53;5044094;28;20049;-64
2021/06/28 01:15:48;;;;;;;8.65;7.18;;;;;;;16.61;90.90;98312.78;5044252;28;20256;-65
2021/06/28 01:18:15;;;;;;;10.68;6.68;;;;;;;16.60;90.61;98317.22;5044277;28;20056;-65
2021/06/28 01:20:40;;;;;;;12.10;6.15;;;;;;;16.53;89.85;98331.75;5044241;28;20044;-65
2021/06/28 01:23:24;;;;;;;8.85;5.72;;;;;;;16.56;89.60;98326.31;5044200;28;20332;-65
2021/06/28 01:25:55;;;;;;;10.48;5.55;;;;;;;16.56;89.30;98331.63;5044063;28;20033;-65
2021/06/28 01:28:21;;;;;;;6.85;5.18;;;;;;;16.59;89.42;98331.47;5044123;28;20067;-65
2021/06/28 01:30:47;;;;;;;15.75;7.18;;;;;;;16.61;90.15;98337.56;5044066;28;20025;-65
2021/06/28 01:33:13;;;;;;;11.70;8.65;;;;;;;16.67;90.90;98325.75;5044302;28;20092;-65
2021/06/28 01:35:40;;;;;;;13.80;6.22;;;;;;;16.58;90.20;98334.19;5044017;28;20190;-65
2021/06/28 01:38:06;;;;;;;8.57;5.72;;;;;;;16.72;90.17;98337.91;5044236;28;20360;-65
2021/06/28 01:40:32;;;;;;;9.02;5.60;;;;;;;16.76;89.50;98328.84;5043953;28;20021;-65
2021/06/28 01:43:00;;;;;;;6.50;5.38;;;;;;;16.76;89.20;98327.97;5043916;28;20028;-65
2021/06/28 01:45:25;;;;;;;8.13;6.28;;;;;;;16.77;89.75;98324.41;5043801;28;20021;-64
2021/06/28 01:47:54;;;;;;;7.85;6.53;;;;;;;16.83;89.97;98309.00;5044145;28;20028;-64
2021/06/28 01:50:21;;;;;;;8.80;6.80;;;;;;;16.78;89.73;98300.41;5044097;28;20023;-64
2021/06/28 01:52:46;;;;;;;10.10;7.90;;;;;;;16.90;90.72;98289.13;5043814;28;20018;-64
2021/06/28 01:55:14;;;;;;;13.68;6.32;;;;;;;16.84;90.15;98281.47;5044125;28;20085;-64
2021/06/28 01:57:42;;;;;;;10.98;7.10;;;;;;;16.92;90.20;98283.75;5047931;28;20070;-65
2021/06/28 02:00:10;;;;;;;10.02;6.63;;;;;;;17.05;90.44;98288.38;5047936;28;20021;-65
2021/06/28 02:02:35;;;;;;;12.25;6.22;;;;;;;16.84;89.16;98270.84;5047750;28;20029;-65
2021/06/28 02:05:01;;;;;;;9.07;6.00;;;;;;;16.77;89.35;98256.13;5047741;28;20287;-65
2021/06/28 02:07:26;;;;;;;9.38;7.13;;;;;;;16.80;90.62;98240.03;5047783;28;20067;-65
2021/06/28 02:09:52;;;;;;;11.52;7.40;;;;;;;16.85;90.85;98237.16;5047725;28;20021;-65
2021/06/28 02:12:17;;;;;;;13.07;8.88;;;;;;;17.07;91.61;98243.97;5047691;28;20029;-65
2021/06/28 02:14:43;;;;;;;10.05;6.85;;;;;;;17.15;91.35;98247.06;5047518;28;20037;-65
2021/06/28 02:17:08;;;;;;;15.43;6.35;;;;;;;17.09;90.07;98252.72;5047576;28;20025;-65
2021/06/28 02:19:34;;;;;;;10.55;6.97;;;;;;;17.01;90.13;98246.94;5047519;28;20025;-65
2021/06/28 02:22:00;;;;;;;12.57;7.20;;;;;;;17.03;90.50;98253.00;5047478;28;20052;-65
2021/06/28 02:24:25;;;;;;;10.90;7.32;;;;;;;17.06;90.99;98252.03;5047694;28;20120;-65
2021/06/28 02:26:51;;;;;;;9.23;7.60;;;;;;;17.20;91.34;98266.34;5047385;28;20021;-64
2021/06/28 02:29:16;;;;;;;10.88;8.32;;;;;;;17.47;91.58;98273.84;5047365;28;20340;-64
2021/06/28 02:31:42;;;;;;;13.23;9.18;;;;;;;17.50;91.72;98273.69;5047536;28;20085;-64
2021/06/28 02:34:08;;;;;;;16.38;8.18;;;;;;;17.45;91.49;98262.41;5047293;28;20025;-65
2021/06/28 02:36:33;;;;;;;9.38;7.80;;;;;;;17.46;91.19;98261.50;5047201;28;20018;-65
2021/06/28 02:38:59;;;;;;;12.52;8.45;;;;;;;17.44;91.72;98263.34;5047184;28;20021;-65
2021/06/28 02:41:25;;;;;;;9.43;8.15;;;;;;;17.48;91.65;98264.91;5047160;28;20017;-65
2021/06/28 02:43:52;;;;;;;11.23;7.90;;;;;;;17.55;91.63;98260.97;5047185;28;20029;-65
2021/06/28 02:46:18;;;;;;;10.63;7.65;;;;;;;17.55;91.44;98261.84;5046976;28;20316;-64
2021/06/28 02:48:44;;;;;;;14.32;8.82;;;;;;;17.59;91.64;98268.72;5047014;28;20017;-64
2021/06/28 02:51:11;;;;;;;9.15;7.60;;;;;;;17.60;91.63;98269.59;5047095;28;20025;-64
2021/06/28 02:53:37;;;;;;;13.18;7.85;;;;;;;17.64;91.88;98268.47;5046882;28;20032;-64
2021/06/28 02:56:13;;;;;;;13.23;7.75;;;;;;;17.69;91.86;98269.09;5046867;28;20025;-64
2021/06/28 02:58:46;;;;;;;12.25;8.55;;;;;;;17.63;91.91;98266.78;5047073;28;20060;-64
2021/06/28 03:01:13;;;;;;;9.43;7.55;;;;;;;17.71;91.57;98261.88;5046776;28;20060;-64
2021/06/28 03:03:39;;;;;;;12.95;7.50;;;;;;;17.72;91.68;98266.28;5046704;28;20025;-64
2021/06/28 03:06:04;;;;;;;10.18;7.40;;;;;;;17.71;91.68;98270.75;5046563;28;20089;-65
2021/06/28 03:08:30;;;;;;;9.65;7.40;;;;;;;17.72;91.72;98280.44;5046889;28;20093;-65
2021/06/28 03:10:56;;;;;;;9.65;6.43;;;;;;;17.70;91.43;98270.81;5046885;28;20025;-65
2021/06/28 03:13:21;;;;;;;16.85;6.90;;;;;;;17.67;91.76;98281.63;5046391;28;20041;-65
2021/06/28 03:15:47;;;;;;;8.63;6.88;;;;;;;17.71;91.32;98283.19;5046541;28;20028;-65
2021/06/28 03:18:12;;;;;;;13.15;6.93;;;;;;;17.63;90.98;98296.03;5046566;28;20186;-64
2021/06/28 03:20:38;;;;;;;9.50;6.88;;;;;;;17.66;91.23;98301.22;5046434;28;20053;-64
2021/06/28 03:23:03;;;;;;;9.15;6.80;;;;;;;17.69;91.24;98285.94;5046388;28;20307;-64
2021/06/28 03:25:30;;;;;;;7.93;6.30;;;;;;;17.67;90.74;98292.28;5046537;28;20025;-64
2021/06/28 03:27:55;;;;;;;10.73;7.43;;;;;;;17.58;90.81;98292.75;5046545;28;20316;-64
2021/06/28 03:30:20;;;;;;;9.05;6.82;;;;;;;17.55;91.27;98287.59;5046354;28;20049;-64
2021/06/28 03:32:46;;;;;;;9.70;7.43;;;;;;;17.56;91.53;98290.16;5046204;28;20088;-64
2021/06/28 03:35:13;;;;;;;7.78;6.97;;;;;;;17.52;90.87;98282.47;5046186;28;20273;-65
2021/06/28 03:37:39;;;;;;;7.57;6.78;;;;;;;17.39;91.25;98281.31;5046091;28;20032;-65
2021/06/28 03:40:09;;;;;;;9.02;6.80;;;;;;;17.46;91.30;98290.75;5046086;28;20025;-65
2021/06/28 03:42:35;;;;;;;11.27;7.05;;;;;;;17.48;91.19;98278.22;5045961;28;20088;-65
2021/06/28 03:45:03;;;;;;;9.00;6.65;;;;;;;17.41;90.99;98279.44;5045895;28;20081;-65
2021/06/28 03:47:29;;;;;;;7.70;6.90;;;;;;;17.37;91.04;98281.41;5045861;28;20092;-65
2021/06/28 03:49:54;;;;;;;8.40;6.72;;;;;;;17.38;91.19;98275.16;5045876;28;20321;-65
2021/06/28 03:52:19;;;;;;;9.85;7.50;;;;;;;17.33;91.45;98265.69;5045895;28;20040;-65
2021/06/28 03:54:45;;;;;;;11.13;6.93;;;;;;;17.27;91.33;98267.72;5046086;28;20337;-65
2021/06/28 03:57:10;;;;;;;8.65;6.72;;;;;;;17.27;91.55;98273.03;5045681;28;20021;-65
2021/06/28 03:59:36;;;;;;;7.82;6.72;;;;;;;17.30;91.67;98276.50;5045708;28;20255;-65
2021/06/28 04:02:01;;;;;;;9.98;6.80;;;;;;;17.33;91.29;98271.03;5045698;28;20025;-65
2021/06/28 04:04:28;;;;;;;14.90;7.30;;;;;;;17.24;90.98;98270.53;5045576;28;20081;-65
2021/06/28 04:06:53;;;;;;;11.15;6.90;;;;;;;17.15;90.81;98281.66;5045734;28;20029;-65
2021/06/28 04:09:18;;;;;;;12.23;6.50;;;;;;;17.15;91.23;98284.31;5045562;28;20072;-65
2021/06/28 04:11:44;;;;;;;12.10;7.05;;;;;;;17.13;91.45;98286.22;5045484;28;20048;-65
2021/06/28 04:14:12;;;;;;;9.68;7.03;;;;;;;17.11;91.72;98282.75;5045350;28;20045;-64
2021/06/28 04:16:38;;;;;;;11.15;7.55;;;;;;;17.13;91.73;98278.22;5045386;28;20059;-64
2021/06/28 04:19:03;;;;;;;15.82;6.90;;;;;;;17.17;91.51;98268.28;5044782;28;20025;-64
2021/06/28 04:21:31;;;;;;;11.35;6.95;;;;;;;17.15;91.57;98276.31;5045267;28;20036;-64
2021/06/28 04:23:57;;;;;;;13.10;7.20;;;;;;;17.19;91.35;98277.03;5045230;28;20221;-64
2021/06/28 04:26:22;;;;;;;8.85;6.53;;;;;;;17.16;91.26;98275.41;5045158;28;20052;-65
2021/06/28 04:28:47;;;;;;;10.30;6.57;;;;;;;17.22;91.18;98275.06;5045174;28;20088;-65
2021/06/28 04:31:13;;;;;;;9.23;7.07;;;;;;;17.25;91.06;98285.56;5045135;28;20092;-65
2021/06/28 04:33:38;;;;;;;12.40;6.60;;;;;;;17.37;90.65;98283.22;5045294;28;20059;-64
2021/06/28 04:36:04;;;;;;;9.48;5.85;;;;;;;17.40;90.28;98277.75;5045009;28;20021;-64
2021/06/28 04:38:30;;;;;;;9.70;6.40;;;;;;;17.92;89.73;98282.91;5045198;28;20066;-64
2021/06/28 04:40:55;;;;;;;10.65;6.57;;;;;;;18.13;88.46;98280.88;5044911;28;20341;-64
2021/06/28 04:43:21;;;;;;;8.80;5.68;;;;;;;18.69;86.45;98282.09;5044862;28;20025;-64
2021/06/28 04:45:46;;;;;;;9.25;5.15;;;;;;;19.08;84.46;98278.94;5044751;28;20423;-64
2021/06/28 04:48:12;;;;;;;10.70;5.68;;;;;;;19.47;82.54;98281.94;5044772;28;20026;-65
2021/06/28 04:50:37;;;;;;;5.65;4.60;;;;;;;20.12;81.38;98289.44;5044727;28;20252;-64
2021/06/28 04:53:03;;;;;;;7.20;4.68;;;;;;;20.69;77.79;98285.69;5044683;28;20026;-65
2021/06/28 04:55:28;;;;;;;8.00;3.92;;;;;;;21.09;76.10;98271.44;5044664;28;20026;-65
2021/06/28 04:57:55;;;;;;;6.28;4.43;;;;;;;21.14;75.77;98269.28;5044569;28;20063;-65
2021/06/28 05:00:23;;;;;;;7.88;4.25;;;;;;;20.95;76.18;98276.00;5044577;28;20064;-65
2021/06/28 05:02:48;;;;;;;5.70;4.50;;;;;;;20.31;78.45;98281.97;5044500;28;20025;-65
2021/06/28 05:05:15;;;;;;;9.90;4.57;;;;;;;20.61;78.32;98280.00;5044403;28;20036;-64
2021/06/28 05:07:42;;;;;;;7.28;4.30;;;;;;;20.36;78.39;98279.88;5044460;28;20190;-65
2021/06/28 05:10:09;;;;;;;7.00;4.45;;;;;;;19.80;79.83;98281.69;5044393;28;20060;-65
2021/06/28 05:12:34;;;;;;;7.45;4.97;;;;;;;19.51;81.97;98280.78;5044182;28;20025;-65
2021/06/28 05:15:00;;;;;;;8.52;5.25;;;;;;;20.55;79.79;98280.41;5044598;28;20028;-65
2021/06/28 05:17:25;;;;;;;7.05;4.82;;;;;;;20.99;79.24;98269.47;5044311;28;20029;-65
2021/06/28 05:19:51;;;;;;;8.90;4.60;;;;;;;21.61;76.03;98278.59;5044219;28;20032;-65
2021/06/28 05:22:17;;;;;;;7.30;4.22;;;;;;;21.93;75.18;98285.28;5044214;28;20075;-65
2021/06/28 05:24:42;;;;;;;7.25;5.07;;;;;;;21.60;76.65;98295.59;5043031;28;20217;-65
2021/06/28 05:27:07;;;;;;;6.20;4.60;;;;;;;21.51;77.28;98307.81;5044068;28;20330;-65
2021/06/28 05:29:33;;;;;;;5.57;4.93;;;;;;;21.42;77.53;98310.28;5043736;28;20096;-65
2021/06/28 05:31:58;;;;;;;11.25;5.10;;;;;;;21.41;78.23;98303.22;5043642;28;20095;-65
2021/06/28 05:34:24;;;;;;;6.50;4.50;;;;;;;22.06;75.48;98296.84;5044042;28;20025;-65
2021/06/28 05:36:50;;;;;;;10.38;4.68;;;;;;;22.30;75.35;98285.22;5044013;28;20067;-65
2021/06/28 05:39:15;;;;;;;5.70;4.70;;;;;;;22.32;75.10;98287.78;5044042;28;20029;-65
2021/06/28 05:41:41;;;;;;;7.70;4.82;;;;;;;22.38;74.97;98266.78;5043952;28;20090;-65
2021/06/28 05:44:06;;;;;;;10.60;4.05;;;;;;;22.05;75.21;98268.34;5043899;28;20089;-65
2021/06/28 05:46:32;;;;;;;9.13;5.20;;;;;;;21.60;77.35;98256.31;5043808;28;20036;-65
2021/06/28 05:48:57;;;;;;;8.05;5.75;;;;;;;21.04;79.15;98260.16;5043846;28;20032;-65
2021/06/28 05:51:23;;;;;;;8.98;5.18;;;;;;;20.67;80.70;98271.59;5043839;28;20025;-65
2021/06/28 05:53:48;;;;;;;11.02;5.30;;;;;;;20.71;81.38;98264.19;5043832;28;20081;-65
2021/06/28 05:56:14;;;;;;;8.60;5.20;;;;;;;20.79;80.90;98272.59;5043823;28;20217;-64
2021/06/28 05:58:40;;;;;;;7.13;5.20;;;;;;;20.71;80.41;98265.06;5043706;28;20327;-64
2021/06/28 06:01:06;;;;;;;11.07;4.93;;;;;;;20.55;80.01;98269.69;5043740;28;20070;-65
2021/06/28 06:03:31;;;;;;;7.70;5.13;;;;;;;20.50;80.29;98270.97;5043783;28;20025;-65
2021/06/28 06:05:57;;;;;;;7.93;5.43;;;;;;;20.43;80.82;98265.13;5042493;28;20041;-65
2021/06/28 06:08:24;;;;;;;7.65;5.05;;;;;;;20.52;80.52;98269.91;5043750;28;20095;-65
2021/06/28 06:10:54;;;;;;;9.15;5.07;;;;;;;20.53;81.88;98266.25;5043740;28;20032;-65
2021/06/28 06:13:20;;;;;;;6.80;5.88;;;;;;;20.57;82.07;98257.06;5043491;28;20073;-65
2021/06/28 06:15:45;;;;;;;10.32;5.35;;;;;;;22.29;76.71;98261.19;5043656;28;20080;-65
2021/06/28 06:18:11;;;;;;;9.05;4.78;;;;;;;23.48;71.93;98255.78;5043579;28;20076;-65
2021/06/28 06:20:37;;;;;;;5.53;4.53;;;;;;;24.27;68.77;98261.97;5043864;28;20313;-65
2021/06/28 06:23:03;;;;;;;7.22;4.30;;;;;;;24.84;63.97;98257.25;5043577;28;20021;-65
2021/06/28 06:25:28;;;;;;;5.30;3.63;;;;;;;25.23;63.79;98264.75;5043460;28;20099;-65
2021/06/28 06:27:54;;;;;;;7.00;4.22;;;;;;;24.62;64.62;98264.53;5043543;28;20079;-65
2021/06/28 06:30:19;;;;;;;7.38;3.80;;;;;;;25.14;63.22;98268.19;5043482;28;20269;-65
2021/06/28 06:32:46;;;;;;;5.25;4.03;;;;;;;26.25;60.07;98268.41;5043501;28;20119;-65
2021/06/28 06:35:13;;;;;;;5.72;3.17;;;;;;;26.83;56.10;98266.81;5043459;28;20031;-65
2021/06/28 06:37:38;;;;;;;5.68;3.17;;;;;;;26.98;56.35;98265.38;5043441;28;20021;-65
2021/06/28 06:40:06;;;;;;;10.40;3.40;;;;;;;25.78;59.63;98266.28;5043411;28;20029;-65
2021/06/28 06:42:31;;;;;;;4.72;3.30;;;;;;;24.83;62.00;98269.03;5045657;28;20021;-65
2021/06/28 06:44:56;;;;;;;5.00;3.38;;;;;;;24.44;61.19;98276.78;5047057;28;20021;-65
2021/06/28 06:47:22;;;;;;;7.97;3.92;;;;;;;24.25;62.66;98296.22;5047106;28;20056;-65
2021/06/28 06:49:48;;;;;;;5.43;3.65;;;;;;;24.53;65.31;98311.88;5047099;28;20029;-65
2021/06/28 06:52:13;;;;;;;7.80;3.55;;;;;;;25.12;60.99;98315.94;5047270;28;20309;-65
2021/06/28 06:54:40;;;;;;;4.22;3.42;;;;;;;24.99;62.99;98315.25;5046967;28;20025;-65
2021/06/28 06:57:06;;;;;;;7.10;3.55;;;;;;;24.11;65.54;98315.28;5046836;28;20063;-65
2021/06/28 06:59:32;;;;;;;7.45;3.40;;;;;;;23.91;64.91;98324.03;5046851;28;20029;-65
2021/06/28 07:01:57;;;;;;;4.07;3.25;;;;;;;23.74;67.60;98320.94;5046827;28;20059;-65
2021/06/28 07:04:23;;;;;;;5.88;3.50;;;;;;;23.77;67.36;98326.94;5046777;28;20028;-65
2021/06/28 07:06:48;;;;;;;7.95;3.75;;;;;;;24.02;67.70;98337.53;5046654;28;20025;-65
2021/06/28 07:09:14;;;;;;;7.20;3.80;;;;;;;23.75;67.47;98323.50;5046707;28;20084;-65
2021/06/28 07:11:39;;;;;;;6.40;3.58;;;;;;;23.55;68.97;98332.25;5046646;28;20032;-65
2021/06/28 07:14:05;;;;;;;6.25;3.53;;;;;;;23.75;69.88;98334.25;5046459;28;20103;-65
2021/06/28 07:16:30;;;;;;;5.20;3.58;;;;;;;23.78;69.25;98344.78;5046558;28;20017;-65
2021/06/28 07:19:00;;;;;;;4.97;3.20;;;;;;;23.94;68.99;98339.94;5046765;28;20025;-65
2021/06/28 07:21:27;;;;;;;5.18;3.40;;;;;;;24.34;66.21;98351.13;5046458;28;20267;-65
2021/06/28 07:23:52;;;;;;;5.93;3.20;;;;;;;24.50;65.25;98360.56;5046390;28;20028;-65
2021/06/28 07:26:24;;;;;;;3.92;3.13;;;;;;;24.88;66.37;98369.13;5046320;28;20208;-65
2021/06/28 07:28:49;;;;;;;5.13;3.28;;;;;;;24.63;63.40;98404.34;5046602;28;20021;-65
2021/06/28 07:31:15;;;;;;;7.43;3.83;;;;;;;24.14;68.66;98433.38;5046273;28;20044;-65
2021/06/28 07:33:41;;;;;;;5.72;3.08;;;;;;;23.87;68.73;98450.72;5046516;28;20017;-65
2021/06/28 07:36:08;;;;;;;5.47;3.08;;;;;;;23.44;70.98;98457.63;5046181;28;20059;-65
2021/06/28 07:38:33;;;;;;;8.65;3.03;;;;;;;23.20;70.02;98449.50;5046123;28;20021;-65
2021/06/28 07:40:59;;;;;;;7.97;3.00;;;;;;;23.15;68.53;98454.31;5046367;28;20407;-65
2021/06/28 07:43:24;;;;;;;4.13;3.05;;;;;;;23.01;69.02;98454.47;5046040;28;20040;-65
2021/06/28 07:45:50;;;;;;;7.50;3.47;;;;;;;22.74;70.28;98451.94;5045947;28;20085;-65
2021/06/28 07:48:17;;;;;;;8.05;3.85;;;;;;;22.73;71.63;98441.31;5046054;28;20313;-65
2021/06/28 07:50:46;;;;;;;6.45;3.30;;;;;;;22.51;71.53;98427.69;5045915;28;20288;-65
2021/06/28 07:53:12;;;;;;;7.40;3.78;;;;;;;22.29;76.16;98416.72;5044965;28;20022;-65
2021/06/28 07:55:37;;;;;;;4.88;3.50;;;;;;;22.38;74.17;98410.72;5045785;28;20092;-65
2021/06/28 07:58:04;;;;;;;11.48;3.75;;;;;;;22.41;75.93;98397.97;5045689;28;20025;-65
2021/06/28 08:00:30;;;;;;;6.35;3.83;;;;;;;22.36;75.54;98381.31;5045695;28;20094;-65
2021/06/28 08:02:55;;;;;;;4.95;3.80;;;;;;;22.39;74.63;98374.88;5045714;28;20071;-65
2021/06/28 08:05:21;;;;;;;4.55;3.63;;;;;;;22.36;74.15;98369.72;5045837;28;20036;-64
2021/06/28 08:07:47;;;;;;;8.18;3.92;;;;;;;22.48;76.08;98395.69;5045596;28;20306;-64
2021/06/28 08:10:13;;;;;;;5.30;3.85;;;;;;;22.73;76.95;98417.16;5045520;28;20217;-64
2021/06/28 08:12:41;;;;;;;6.70;4.13;;;;;;;22.82;78.67;98419.19;5045308;28;20071;-64
2021/06/28 08:15:09;;;;;;;7.60;4.35;;;;;;;22.76;78.65;98403.53;5045463;28;20118;-64
2021/06/28 08:17:35;;;;;;;7.45;4.00;;;;;;;22.80;78.68;98394.28;5045351;28;20263;-64
2021/06/28 08:20:00;;;;;;;10.55;4.32;;;;;;;22.73;79.30;98404.63;5045353;28;20045;-64
2021/06/28 08:22:26;;;;;;;4.05;3.63;;;;;;;22.61;74.21;98412.66;5045258;28;20067;-65
2021/06/28 08:24:51;;;;;;;6.35;4.15;;;;;;;22.64;77.33;98417.81;5045187;28;20032;-65
2021/06/28 08:27:17;;;;;;;5.70;4.18;;;;;;;22.50;75.10;98409.91;5045182;28;20190;-65
2021/06/28 08:29:43;;;;;;;7.35;4.32;;;;;;;22.59;76.35;98385.09;5045096;28;20309;-65
2021/06/28 08:32:09;;;;;;;4.97;4.07;;;;;;;22.71;75.74;98370.78;5045088;28;20029;-65
2021/06/28 08:34:34;;;;;;;7.63;3.90;;;;;;;22.87;75.21;98349.91;5045120;28;20422;-65
2021/06/28 08:37:00;;;;;;;7.18;3.97;;;;;;;23.41;73.70;98356.59;5045068;28;20068;-65
2021/06/28 08:39:28;;;;;;;5.68;3.63;;;;;;;24.98;64.19;98378.19;5044990;28;20189;-65
2021/06/28 08:41:55;;;;;;;7.20;3.72;;;;;;;26.11;63.29;98370.44;5044934;28;20028;-65
2021/06/28 08:44:21;;;;;;;5.03;3.28;;;;;;;27.19;61.94;98366.13;5044901;28;20022;-65
2021/06/28 08:46:47;;;;;;;4.65;2.90;;;;;;;26.77;59.02;98369.97;5044836;28;20017;-65
2021/06/28 08:49:13;;;;;;;4.18;3.28;;;;;;;26.59;59.77;98371.56;5044790;28;20021;-65
2021/06/28 08:51:39;;;;;;;3.83;3.20;;;;;;;26.61;55.94;98369.59;5044775;28;20315;-65
2021/06/28 08:54:10;;;;;;;3.70;3.00;;;;;;;27.61;57.66;98362.22;5044686;28;20021;-65
2021/06/28 08:56:37;;;;;;;4.15;2.90;;;;;;;28.30;52.78;98361.03;5044964;28;20009;-65
2021/06/28 08:59:04;;;;;;;3.58;2.88;;;;;;;28.72;52.02;98351.50;5044576;28;20021;-65
2021/06/28 09:01:34;;;;;;;5.50;3.25;;;;;;;29.17;52.07;98357.88;5044598;28;20020;-65
2021/06/28 09:04:01;;;;;;;5.68;2.83;;;;;;;28.56;51.06;98340.47;5044409;28;20024;-65
2021/06/28 09:06:28;;;;;;;5.13;3.17;;;;;;;27.67;54.80;98336.44;5044418;28;20028;-65
2021/06/28 09:08:54;;;;;;;5.15;2.92;;;;;;;28.96;54.82;98349.13;5044483;28;20017;-65
2021/06/28 09:11:19;;;;;;;7.03;3.00;;;;;;;30.01;52.87;98342.09;5044425;28;20095;-65
2021/06/28 09:13:47;;;;;;;2.55;2.25;;;;;;;29.80;50.87;98341.59;5044203;28;20037;-65
2021/06/28 09:16:20;;;;;;;9.00;2.80;;;;;;;29.69;52.74;98341.81;5044290;28;20024;-65
2021/06/28 09:19:02;;;;;;;3.40;2.72;;;;;;;30.56;50.61;98344.38;5044263;28;20021;-65
2021/06/28 09:21:33;;;;;;;3.85;2.60;;;;;;;31.26;46.81;98345.94;5044311;28;20029;-65
2021/06/28 09:24:00;;;;;;;;;;;;;;;31.22;45.59;98338.25;5044688;28;20021;-65
2021/06/28 09:26:34;;;;;;;3.65;2.53;;;;;;;30.46;47.60;98338.22;5044073;28;19909;-65
2021/06/28 09:29:04;;;;;;;4.95;2.60;;;;;;;30.83;49.56;98343.38;5044167;28;20047;-65
2021/06/28 09:31:43;;;;;;;6.30;2.53;;;;;;;30.80;49.37;98351.84;5044155;28;20021;-65
2021/06/28 09:34:16;;;;;;;5.47;2.80;;;;;;;30.62;47.75;98353.75;5044136;28;20063;-65
2021/06/28 09:36:46;;;;;;;6.07;3.10;;;;;;;29.77;48.77;98348.16;5044049;28;20039;-65
2021/06/28 09:39:21;;;;;;;3.97;2.78;;;;;;;29.27;52.17;98351.53;5044033;28;20025;-65
2021/06/28 09:41:47;;;;;;;6.47;2.80;;;;;;;28.75;52.12;98351.22;5044000;28;20092;-65
2021/06/28 09:44:13;;;;;;;3.95;2.90;;;;;;;28.71;53.65;98355.22;5043930;28;20029;-65
2021/06/28 09:46:38;;;;;;;4.15;3.00;;;;;;;28.74;52.09;98349.53;5043850;28;20037;-65
2021/06/28 09:49:06;;;;;;;7.00;3.00;;;;;;;28.80;55.02;98348.94;5043894;28;20084;-65
2021/06/28 09:51:36;;;;;;;3.55;2.90;;;;;;;29.56;52.49;98352.16;5044135;28;20034;-65
2021/06/28 09:54:08;;;;;;;3.40;2.75;;;;;;;29.39;52.58;98355.75;5043867;28;20017;-65
2021/06/28 09:56:59;;;;;;;;;;;;;;;29.90;49.86;98355.94;5044210;28;20063;-65
2021/06/28 09:59:35;;;;;;;6.15;2.88;;;;;;;29.29;50.22;98354.97;5043526;28;19905;-65
2021/06/28 10:02:25;;;;;;;4.18;2.83;;;;;;;29.60;48.90;98354.44;5043755;28;20260;-65
2021/06/28 10:05:01;;;;;;;4.32;2.50;;;;;;;30.19;47.31;98354.69;5043771;28;20101;-65
2021/06/28 10:07:27;;;;;;;3.28;2.67;;;;;;;30.37;47.29;98360.06;5044024;28;20017;-65
2021/06/28 10:10:13;;;;;;;4.65;2.75;;;;;;;30.23;48.86;98360.63;5043742;28;20025;-65
2021/06/28 10:12:44;;;;;;;4.03;2.70;;;;;;;30.95;47.53;98361.09;5043532;28;20253;-65
2021/06/28 10:15:12;;;;;;;;;;;;;;;31.24;45.85;98361.53;5042843;28;20026;-65
2021/06/28 10:17:38;;;;;;;5.00;2.90;;;;;;;31.26;45.97;98362.25;5046260;28;19972;-65
2021/06/28 10:20:07;;;;;;;4.28;2.92;;;;;;;31.00;44.49;98366.88;5047595;28;20032;-65
2021/06/28 10:22:34;;;;;;;5.45;2.60;;;;;;;30.94;47.00;98365.66;5047495;28;20320;-65
2021/06/28 10:25:01;;;;;;;4.47;2.75;;;;;;;30.11;46.67;98359.13;5047708;28;20215;-65
2021/06/28 10:27:28;;;;;;;4.65;3.00;;;;;;;29.42;48.03;98355.44;5047503;28;20317;-65
2021/06/28 10:29:53;;;;;;;5.20;3.20;;;;;;;29.08;50.62;98358.75;5047507;28;20291;-65
2021/06/28 10:32:20;;;;;;;5.20;2.70;;;;;;;29.74;51.56;98347.66;5047435;28;20116;-65
2021/06/28 10:34:51;;;;;;;4.68;2.72;;;;;;;30.46;52.62;98353.66;5047364;28;20029;-65
2021/06/28 10:37:31;;;;;;;3.00;2.70;;;;;;;30.89;47.57;98361.75;5047357;28;20021;-65
2021/06/28 10:40:11;;;;;;;2.92;2.63;;;;;;;31.19;51.30;98347.56;5047311;28;20258;-65
2021/06/28 10:42:41;;;;;;;5.07;2.80;;;;;;;30.88;48.26;98347.28;5047260;28;20041;-65
2021/06/28 10:45:10;;;;;;;4.97;2.92;;;;;;;30.58;46.03;98347.81;5047102;28;20096;-65
2021/06/28 10:47:37;;;;;;;4.30;2.45;;;;;;;30.66;47.10;98349.72;5047307;28;20277;-65
2021/06/28 10:50:04;;;;;;;2.92;2.58;;;;;;;30.85;47.28;98346.78;5046997;28;20028;-65
2021/06/28 10:52:38;;;;;;;6.68;2.67;;;;;;;30.72;47.47;98343.63;5047038;28;20023;-65
2021/06/28 10:55:13;;;;;;;3.80;2.88;;;;;;;30.91;49.32;98337.97;5046933;28;20025;-65
2021/06/28 10:57:40;;;;;;;2.95;2.65;;;;;;;29.78;52.07;98340.88;5046832;28;20288;-65
2021/06/28 11:00:07;;;;;;;2.72;2.35;;;;;;;29.02;53.51;98337.66;5046853;28;20028;-65
2021/06/28 11:02:37;;;;;;;5.70;2.95;;;;;;;29.01;54.61;98346.81;5046870;28;20022;-65
2021/06/28 11:05:05;;;;;;;5.05;2.72;;;;;;;29.03;52.96;98338.53;5046657;28;20048;-65
2021/06/28 11:07:48;;;;;;;3.65;3.05;;;;;;;28.74;54.41;98344.09;5046662;28;20021;-65
2021/06/28 11:10:15;;;;;;;4.47;2.80;;;;;;;29.06;54.07;98338.25;5046705;28;20048;-65
2021/06/28 11:12:41;;;;;;;3.55;2.70;;;;;;;28.63;53.39;98338.84;5046537;28;20088;-65
2021/06/28 11:15:25;;;;;;;5.55;3.03;;;;;;;28.14;54.86;98344.56;5046670;28;20029;-65
2021/06/28 11:17:54;;;;;;;3.70;2.75;;;;;;;28.10;55.45;98337.72;5046855;28;20017;-65
2021/06/28 11:20:20;;;;;;;7.78;3.05;;;;;;;28.37;57.61;98335.06;5046497;28;20321;-65
2021/06/28 11:23:17;;;;;;;3.28;2.88;;;;;;;28.50;56.30;98332.06;5046455;28;20028;-65
2021/06/28 11:25:42;;;;;;;4.70;3.10;;;;;;;28.86;56.09;98328.50;5046629;28;20045;-65
2021/06/28 11:28:19;;;;;;;4.20;2.75;;;;;;;29.09;54.75;98322.56;5045050;28;20048;-65
2021/06/28 11:30:49;;;;;;;3.58;2.78;;;;;;;28.78;55.50;98326.53;5046291;28;20036;-65